Time;durP1;ratioP1;P1;durP2;ratioP2;P2;SDS_P1;SDS_P2;PMS_P1;PMS_P2;Temp;Humidity;BMP_temperature;BMP_pressure;BME280_temperature;BME280_humidity;BME280_pressure;Samples;Min_cycle;Max_cycle;Signal;HPM_P1;HPM_P2
2023/01/07 00:01:28;;;;;;;1.27;0.77;;;7.10;99.90;7.00;100914.00;;;;4912101;28;94322;-66
2023/01/07 00:03:56;;;;;;;1.13;0.97;;;7.30;99.90;7.10;100912.00;;;;4906917;28;93965;-66
2023/01/07 00:06:25;;;;;;;1.17;0.93;;;7.20;99.90;7.20;100905.00;;;;4907464;28;100603;-66
2023/01/07 00:08:54;;;;;;;1.47;0.57;;;7.90;99.90;7.20;100916.00;;;;4891554;28;93490;-65
2023/01/07 00:11:35;;;;;;;2.17;0.73;;;7.30;99.90;7.30;100913.00;;;;4912039;28;96949;-66
2023/01/07 00:14:05;;;;;;;2.60;0.80;;;7.40;99.90;7.30;100911.00;;;;4876793;28;93375;-65
2023/01/07 00:16:33;;;;;;;0.93;0.90;;;7.40;99.90;7.30;100906.00;;;;4908853;28;94115;-65
2023/01/07 00:19:01;;;;;;;1.03;0.70;;;8.00;99.90;7.40;100906.00;;;;4910253;28;92845;-66
2023/01/07 00:21:28;;;;;;;1.47;1.07;;;7.50;99.90;7.40;100895.00;;;;4913272;28;92150;-66
2023/01/07 00:23:57;;;;;;;1.13;0.70;;;7.50;99.90;7.50;100898.00;;;;4894589;28;93031;-66
2023/01/07 00:26:25;;;;;;;1.70;0.87;;;7.60;99.90;7.50;100901.00;;;;4882683;28;92863;-65
2023/01/07 00:28:52;;;;;;;2.07;1.40;;;7.70;99.90;7.50;100898.00;;;;4905572;28;104410;-66
2023/01/07 00:31:24;;;;;;;0.73;0.53;;;7.60;99.90;7.60;100902.00;;;;4904658;28;92892;-65
2023/01/07 00:34:05;;;;;;;1.10;0.83;;;7.70;99.90;7.60;100898.00;;;;4907242;28;92807;-66
2023/01/07 00:36:38;;;;;;;0.60;0.60;;;7.70;99.90;7.60;100899.00;;;;4903717;28;93435;-66
2023/01/07 00:39:19;;;;;;;1.33;0.70;;;7.70;99.90;7.50;100905.00;;;;4898848;28;93863;-65
2023/01/07 00:44:31;;;;;;;1.83;1.13;;;7.70;99.90;7.60;100895.00;;;;4906481;28;93283;-65
2023/01/07 00:46:58;;;;;;;1.50;0.83;;;7.70;99.90;7.60;100890.00;;;;4908233;28;92416;-65
2023/01/07 00:49:24;;;;;;;0.87;0.83;;;7.70;99.90;7.70;100889.00;;;;4904887;28;93064;-66
2023/01/07 00:51:50;;;;;;;1.23;0.90;;;7.80;99.90;7.70;100882.00;;;;4906031;28;93141;-66
2023/01/07 00:54:16;;;;;;;1.43;0.90;;;7.80;99.90;7.70;100891.00;;;;4901488;28;101953;-66
2023/01/07 00:56:42;;;;;;;1.13;1.03;;;7.90;99.90;7.70;100887.00;;;;4887858;28;123464;-65
2023/01/07 00:59:07;;;;;;;2.63;0.70;;;7.80;99.90;7.70;100887.00;;;;4906741;28;119950;-67
2023/01/07 01:01:33;;;;;;;1.73;1.23;;;7.80;99.90;7.70;100892.00;;;;4873379;28;110244;-66
2023/01/07 01:03:59;;;;;;;0.90;0.70;;;8.00;99.90;7.70;100878.00;;;;4903584;28;100100;-66
2023/01/07 01:06:24;;;;;;;1.90;0.93;;;7.80;99.90;7.60;100881.00;;;;4903658;28;121356;-65
2023/01/07 01:08:50;;;;;;;1.47;1.17;;;7.80;99.90;7.60;100877.00;;;;4905252;28;123142;-65
2023/01/07 01:11:16;;;;;;;2.97;1.27;;;7.80;99.90;7.60;100876.00;;;;4906167;28;92165;-65
2023/01/07 01:13:43;;;;;;;1.30;1.10;;;7.80;99.90;7.60;100890.00;;;;4908508;28;93285;-65
2023/01/07 01:16:15;;;;;;;1.13;0.93;;;7.70;99.90;7.50;100881.00;;;;4902381;28;93945;-65
2023/01/07 01:18:41;;;;;;;0.97;0.70;;;7.70;99.90;7.50;100886.00;;;;4906235;28;94010;-65
2023/01/07 01:21:12;;;;;;;0.90;0.70;;;7.60;99.90;7.50;100890.00;;;;4905516;28;92958;-65
2023/01/07 01:23:38;;;;;;;1.00;0.90;;;7.60;99.90;7.40;100890.00;;;;4905798;28;100310;-66
2023/01/07 01:26:14;;;;;;;1.00;1.00;;;7.60;99.90;7.50;100886.00;;;;4886278;28;92831;-64
2023/01/07 01:28:40;;;;;;;2.17;1.03;;;7.60;99.90;7.50;100886.00;;;;4906192;28;93934;-66
2023/01/07 01:31:07;;;;;;;0.87;0.87;;;7.60;99.90;7.50;100884.00;;;;4905616;28;92718;-67
2023/01/07 01:33:33;;;;;;;1.57;0.90;;;7.70;99.90;7.60;100887.00;;;;4903319;28;93069;-66
2023/01/07 01:36:02;;;;;;;1.23;1.07;;;7.70;99.90;7.60;100888.00;;;;4905313;28;121554;-66
2023/01/07 01:38:29;;;;;;;1.60;0.93;;;7.70;99.90;7.60;100883.00;;;;4907021;28;92939;-66
2023/01/07 01:40:55;;;;;;;0.83;0.77;;;7.70;99.90;7.60;100891.00;;;;4905233;28;111610;-67
2023/01/07 01:43:40;;;;;;;0.80;0.80;;;7.80;99.90;7.60;100887.00;;;;4884003;28;109186;-66
2023/01/07 01:46:16;;;;;;;1.60;0.97;;;7.80;99.90;7.70;100887.00;;;;4903254;28;113472;-66
2023/01/07 01:48:59;;;;;;;1.07;0.80;;;7.70;99.90;7.70;100879.00;;;;4889780;28;96718;-66
2023/01/07 01:51:28;;;;;;;0.83;0.83;;;7.80;99.90;7.80;100887.00;;;;4889589;28;93092;-66
2023/01/07 01:53:54;;;;;;;1.13;0.93;;;8.00;99.90;7.80;100877.00;;;;4909414;28;93038;-66
2023/01/07 01:56:27;;;;;;;1.07;0.83;;;8.00;99.90;7.90;100879.00;;;;4908165;28;123645;-66
2023/01/07 01:58:59;;;;;;;1.33;1.23;;;7.90;99.90;8.00;100880.00;;;;4892235;28;94556;-67
2023/01/07 02:01:25;;;;;;;3.17;1.07;;;8.10;99.90;8.00;100877.00;;;;4887736;28;100741;-66
2023/01/07 02:03:51;;;;;;;1.30;0.80;;;8.00;99.90;8.10;100879.00;;;;4903808;28;108377;-67
2023/01/07 02:06:25;;;;;;;1.70;0.83;;;8.10;99.90;8.20;100868.00;;;;4903014;28;93151;-67
2023/01/07 02:08:51;;;;;;;0.67;0.67;;;8.40;99.90;8.20;100877.00;;;;4890731;28;95352;-69
2023/01/07 02:12:01;;;;;;;0.73;0.73;;;8.30;99.90;8.30;100876.00;;;;4905692;28;110199;-69
2023/01/07 02:15:05;;;;;;;1.40;0.90;;;8.40;99.90;8.40;100878.00;;;;4908274;28;93154;-69
2023/01/07 02:17:37;;;;;;;0.80;0.80;;;8.50;99.90;8.50;100873.00;;;;4907595;28;93382;-68
2023/01/07 02:20:39;;;;;;;0.80;0.63;;;8.50;99.90;8.50;100880.00;;;;4891266;28;117760;-69
2023/01/07 02:23:35;;;;;;;1.10;0.80;;;8.60;99.90;8.60;100871.00;;;;4882324;28;103472;-68
2023/01/07 02:26:41;;;;;;;2.30;1.20;;;8.70;99.90;8.60;100873.00;;;;4903973;28;92973;-68
2023/01/07 02:29:55;;;;;;;1.47;0.93;;;8.70;99.90;8.70;100862.00;;;;4907954;28;93841;-69
2023/01/07 02:32:42;;;;;;;0.87;0.70;;;8.80;99.90;8.70;100863.00;;;;4901804;28;92951;-69
2023/01/07 02:35:39;;;;;;;1.43;1.00;;;8.80;99.90;8.70;100860.00;;;;4890669;28;99445;-69
2023/01/07 02:38:23;;;;;;;1.40;0.77;;;8.90;99.90;8.80;100857.00;;;;4890100;28;94001;-69
2023/01/07 02:41:01;;;;;;;0.67;0.60;;;8.90;99.90;8.80;100860.00;;;;4889314;28;115996;-69
2023/01/07 02:43:41;;;;;;;0.93;0.73;;;8.90;99.90;8.80;100845.00;;;;4906612;28;93130;-69
2023/01/07 02:46:45;;;;;;;1.70;0.67;;;8.90;99.90;8.80;100859.00;;;;4882445;28;92867;-69
2023/01/07 02:49:15;;;;;;;0.97;0.70;;;9.00;99.90;8.80;100859.00;;;;4887534;28;93010;-69
2023/01/07 02:51:42;;;;;;;2.20;0.77;;;9.00;99.90;8.90;100853.00;;;;4890129;28;102285;-69
2023/01/07 02:54:20;;;;;;;4.57;0.83;;;8.90;99.90;8.90;100853.00;;;;4905712;28;93169;-69
2023/01/07 02:57:27;;;;;;;0.87;0.80;;;9.00;99.90;8.90;100847.00;;;;4887919;28;99252;-69
2023/01/07 03:00:30;;;;;;;0.60;0.60;;;9.00;99.90;8.90;100852.00;;;;4904969;28;92891;-69
2023/01/07 03:03:51;;;;;;;3.07;0.77;;;9.00;99.90;8.90;100851.00;;;;4880898;28;114161;-69
2023/01/07 03:06:55;;;;;;;0.80;0.80;;;9.10;99.90;8.90;100851.00;;;;4885735;28;94919;-69
2023/01/07 03:09:43;;;;;;;0.80;0.63;;;9.10;99.90;8.90;100858.00;;;;4890688;28;93188;-69
2023/01/07 03:12:35;;;;;;;1.47;0.97;;;9.10;99.90;8.90;100854.00;;;;4892696;28;93163;-69
2023/01/07 03:15:20;;;;;;;0.90;0.70;;;9.00;99.90;8.90;100854.00;;;;4887946;28;93016;-69
2023/01/07 03:18:07;;;;;;;1.03;0.90;;;9.10;99.90;8.80;100847.00;;;;4888646;28;115386;-69
2023/01/07 03:20:37;;;;;;;0.87;0.77;;;9.00;99.90;8.80;100839.00;;;;4888449;28;93058;-69
2023/01/07 03:23:07;;;;;;;0.50;0.50;;;8.90;99.90;8.80;100851.00;;;;4904585;28;93037;-69
2023/01/07 03:25:38;;;;;;;1.63;1.07;;;8.90;99.90;8.70;100851.00;;;;4886567;28;112881;-69
2023/01/07 03:28:06;;;;;;;2.93;1.00;;;8.80;99.90;8.70;100851.00;;;;4890482;28;92918;-70
2023/01/07 03:30:32;;;;;;;1.23;0.97;;;8.80;99.90;8.70;100853.00;;;;4906867;28;99729;-69
2023/01/07 03:33:16;;;;;;;0.97;0.87;;;8.80;99.90;8.60;100863.00;;;;4886333;28;109912;-70
2023/01/07 03:35:47;;;;;;;0.93;0.90;;;8.80;99.90;8.60;100862.00;;;;4889899;28;93498;-70
2023/01/07 03:38:15;;;;;;;0.97;0.77;;;8.80;99.90;8.60;100849.00;;;;4903489;28;93663;-70
2023/01/07 03:40:41;;;;;;;0.80;0.80;;;8.70;99.90;8.60;100854.00;;;;4892190;28;102479;-70
2023/01/07 03:43:17;;;;;;;1.03;0.87;;;8.70;99.90;8.60;100851.00;;;;4885411;28;109152;-69
2023/01/07 03:45:43;;;;;;;1.00;0.87;;;8.70;99.90;8.60;100847.00;;;;4879268;28;116200;-69
2023/01/07 03:48:08;;;;;;;0.33;0.33;;;8.70;99.90;8.60;100847.00;;;;4904443;28;93004;-69
2023/01/07 03:50:34;;;;;;;0.60;0.60;;;8.70;99.90;8.50;100836.00;;;;4905337;28;109572;-69
2023/01/07 03:53:00;;;;;;;1.50;1.00;;;8.60;99.90;8.50;100846.00;;;;4902827;28;110133;-69
2023/01/07 03:55:25;;;;;;;1.27;0.80;;;8.60;99.90;8.50;100837.00;;;;4904062;28;124227;-69
2023/01/07 03:57:51;;;;;;;2.47;0.70;;;8.60;99.90;8.50;100837.00;;;;4902345;28;121090;-70
2023/01/07 04:00:17;;;;;;;0.70;0.70;;;8.60;99.90;8.50;100827.00;;;;4907526;28;110516;-69
2023/01/07 04:02:42;;;;;;;2.40;0.80;;;8.70;99.90;8.50;100837.00;;;;4907598;28;92971;-68
2023/01/07 04:05:09;;;;;;;1.00;0.90;;;8.60;99.90;8.60;100839.00;;;;4908472;28;100040;-67
2023/01/07 04:07:36;;;;;;;0.70;0.70;;;8.70;99.90;8.60;100825.00;;;;4907127;28;93229;-67
2023/01/07 04:10:05;;;;;;;0.83;0.80;;;8.70;99.90;8.60;100820.00;;;;4908859;28;93120;-67
2023/01/07 04:12:31;;;;;;;0.97;0.50;;;8.70;99.90;8.60;100816.00;;;;4908438;28;93098;-69
2023/01/07 04:14:57;;;;;;;0.57;0.57;;;8.20;99.90;8.60;100819.00;;;;4906080;28;93285;-69
2023/01/07 04:17:22;;;;;;;1.07;0.77;;;8.70;99.90;8.60;100812.00;;;;4907558;28;93057;-69
2023/01/07 04:19:48;;;;;;;0.70;0.60;;;8.70;99.90;8.60;100820.00;;;;4904514;28;92776;-69
2023/01/07 04:22:14;;;;;;;2.83;0.70;;;8.70;99.90;8.50;100811.00;;;;4903340;28;93867;-69
2023/01/07 04:24:40;;;;;;;1.10;0.63;;;8.70;99.90;8.40;100806.00;;;;4906116;28;121185;-69
2023/01/07 04:27:05;;;;;;;0.30;0.30;;;8.60;99.90;8.40;100806.00;;;;4904095;28;123081;-69
2023/01/07 04:29:31;;;;;;;0.57;0.50;;;8.60;99.90;8.40;100816.00;;;;4889203;28;93239;-68
2023/01/07 04:31:57;;;;;;;0.70;0.53;;;8.50;99.90;8.40;100816.00;;;;4907985;28;93067;-68
2023/01/07 04:34:23;;;;;;;1.00;0.70;;;8.50;99.90;8.30;100810.00;;;;4904173;28;93677;-69
2023/01/07 04:36:48;;;;;;;0.63;0.43;;;8.50;99.90;8.30;100810.00;;;;4905995;28;109225;-69
2023/01/07 04:39:15;;;;;;;0.97;0.70;;;8.50;99.90;8.30;100811.00;;;;4906215;28;97152;-69
2023/01/07 04:41:41;;;;;;;0.60;0.37;;;8.40;99.90;8.20;100808.00;;;;4909276;28;93128;-69
2023/01/07 04:44:06;;;;;;;1.07;0.60;;;8.60;99.90;8.30;100815.00;;;;4887448;28;95534;-69
2023/01/07 04:46:32;;;;;;;0.30;0.30;;;8.40;99.90;8.20;100807.00;;;;4904677;28;93826;-69
2023/01/07 04:48:58;;;;;;;0.77;0.73;;;8.40;99.90;8.20;100808.00;;;;4905548;28;108578;-69
2023/01/07 04:51:23;;;;;;;0.87;0.40;;;8.30;99.90;8.10;100803.00;;;;4907046;28;109185;-69
2023/01/07 04:53:49;;;;;;;0.57;0.37;;;8.30;99.90;8.00;100811.00;;;;4905893;28;121587;-68
2023/01/07 04:56:15;;;;;;;0.47;0.40;;;8.20;99.90;8.00;100810.00;;;;4908173;28;121978;-67
2023/01/07 04:58:40;;;;;;;0.30;0.30;;;8.20;99.90;7.90;100804.00;;;;4904120;28;110624;-66
2023/01/07 05:01:07;;;;;;;0.60;0.57;;;8.10;99.90;7.90;100800.00;;;;4906676;28;94891;-68
2023/01/07 05:03:33;;;;;;;0.40;0.40;;;8.10;99.90;7.90;100798.00;;;;4906861;28;93584;-69
2023/01/07 05:05:59;;;;;;;0.40;0.40;;;8.00;99.90;7.80;100789.00;;;;4906339;28;92876;-66
2023/01/07 05:08:25;;;;;;;1.07;0.70;;;8.00;99.90;7.80;100791.00;;;;4904554;28;92988;-67
2023/01/07 05:10:52;;;;;;;0.70;0.40;;;7.90;99.90;7.80;100791.00;;;;4909423;28;93929;-68
2023/01/07 05:13:21;;;;;;;0.63;0.63;;;7.90;99.90;7.80;100788.00;;;;4906367;28;94055;-69
2023/01/07 05:15:47;;;;;;;0.60;0.60;;;7.90;99.90;7.80;100800.00;;;;4891377;28;94362;-67
2023/01/07 05:18:13;;;;;;;1.23;0.47;;;7.90;99.90;7.80;100791.00;;;;4905647;28;93185;-68
2023/01/07 05:20:39;;;;;;;0.40;0.40;;;7.90;99.90;7.70;100796.00;;;;4906199;28;108259;-66
2023/01/07 05:23:05;;;;;;;1.00;0.80;;;7.90;99.90;7.70;100782.00;;;;4905760;28;122287;-66
2023/01/07 05:25:34;;;;;;;0.37;0.37;;;7.80;99.90;7.60;100789.00;;;;4907272;28;93761;-68
2023/01/07 05:28:00;;;;;;;0.70;0.40;;;7.80;99.90;7.60;100790.00;;;;4906494;28;92326;-68
2023/01/07 05:30:26;;;;;;;0.73;0.37;;;7.70;99.90;7.60;100790.00;;;;4907392;28;97895;-69
2023/01/07 05:32:52;;;;;;;1.77;0.60;;;7.70;99.90;7.60;100784.00;;;;4907892;28;95064;-69
2023/01/07 05:35:17;;;;;;;0.50;0.50;;;7.70;99.90;7.60;100781.00;;;;4881458;28;110345;-69
2023/01/07 05:37:44;;;;;;;0.53;0.50;;;7.70;99.90;7.60;100786.00;;;;4908426;28;110570;-69
2023/01/07 05:40:11;;;;;;;0.80;0.57;;;8.20;99.90;7.70;100781.00;;;;4908207;28;92983;-69
2023/01/07 05:42:37;;;;;;;0.50;0.50;;;7.80;99.90;7.70;100786.00;;;;4908626;28;93940;-69
2023/01/07 05:45:03;;;;;;;2.00;0.60;;;7.80;99.90;7.80;100793.00;;;;4880406;28;113206;-70
2023/01/07 05:47:29;;;;;;;0.40;0.40;;;7.90;99.90;7.80;100787.00;;;;4889295;28;92910;-69
2023/01/07 05:49:55;;;;;;;0.37;0.37;;;8.30;99.90;7.80;100783.00;;;;4908493;28;92941;-69
2023/01/07 05:52:20;;;;;;;0.47;0.47;;;7.90;99.90;7.90;100785.00;;;;4907057;28;123324;-68
2023/01/07 05:54:46;;;;;;;0.97;0.53;;;8.00;99.90;7.90;100781.00;;;;4904068;28;120963;-67
2023/01/07 05:57:12;;;;;;;0.50;0.40;;;8.00;99.90;7.90;100782.00;;;;4901090;28;110738;-67
2023/01/07 05:59:37;;;;;;;0.97;0.50;;;8.10;99.90;8.00;100792.00;;;;4906847;28;108599;-66
2023/01/07 06:02:03;;;;;;;0.53;0.50;;;8.20;99.90;8.10;100784.00;;;;4903905;28;94143;-67
2023/01/07 06:04:29;;;;;;;0.33;0.27;;;8.20;99.90;8.10;100785.00;;;;4909789;28;122478;-69
2023/01/07 06:06:55;;;;;;;0.60;0.57;;;8.20;99.90;8.20;100791.00;;;;4904370;28;93158;-68
2023/01/07 06:09:21;;;;;;;0.50;0.50;;;8.30;99.90;8.20;100780.00;;;;4905478;28;110071;-67
2023/01/07 06:11:47;;;;;;;0.40;0.40;;;8.30;99.90;8.20;100780.00;;;;4906389;28;93558;-67
2023/01/07 06:14:12;;;;;;;0.50;0.50;;;8.30;99.90;8.30;100776.00;;;;4906461;28;113557;-68
2023/01/07 06:16:39;;;;;;;1.20;0.50;;;8.30;99.90;8.30;100780.00;;;;4905802;28;92085;-69
2023/01/07 06:19:04;;;;;;;0.70;0.67;;;8.40;99.90;8.30;100778.00;;;;4906911;28;93003;-67
2023/01/07 06:21:30;;;;;;;0.57;0.47;;;8.40;99.90;8.30;100773.00;;;;4901265;28;123005;-67
2023/01/07 06:23:55;;;;;;;0.83;0.67;;;8.40;99.90;8.40;100783.00;;;;4903230;28;122266;-67
2023/01/07 06:26:21;;;;;;;0.97;0.70;;;8.40;99.90;8.40;100781.00;;;;4901997;28;110334;-68
2023/01/07 06:28:47;;;;;;;0.87;0.60;;;8.50;99.90;8.40;100782.00;;;;4901787;28;92886;-67
2023/01/07 06:31:13;;;;;;;0.80;0.73;;;8.50;99.90;8.40;100784.00;;;;4898151;28;122452;-67
2023/01/07 06:33:39;;;;;;;1.27;0.77;;;8.50;99.90;8.50;100784.00;;;;4913178;28;122358;-67
2023/01/07 06:36:06;;;;;;;0.87;0.80;;;8.60;99.90;8.50;100776.00;;;;4902494;28;93139;-69
2023/01/07 06:38:31;;;;;;;2.43;1.00;;;8.60;99.90;8.50;100788.00;;;;4902267;28;92795;-66
2023/01/07 06:40:57;;;;;;;0.87;0.80;;;8.60;99.90;8.60;100780.00;;;;4900985;28;122826;-69
2023/01/07 06:43:24;;;;;;;1.30;0.80;;;8.60;99.90;8.60;100790.00;;;;4902544;28;94937;-67
2023/01/07 06:45:50;;;;;;;2.90;0.83;;;8.70;99.90;8.60;100785.00;;;;4902339;28;93241;-69
2023/01/07 06:48:16;;;;;;;0.83;0.60;;;8.60;99.90;8.60;100794.00;;;;4871431;28;108443;-69
2023/01/07 06:50:43;;;;;;;1.00;0.87;;;8.70;99.90;8.60;100793.00;;;;4882153;28;119657;-66
2023/01/07 06:53:08;;;;;;;0.70;0.70;;;8.70;99.90;8.60;100791.00;;;;4880170;28;113818;-66
2023/01/07 06:55:34;;;;;;;1.00;0.80;;;8.70;99.90;8.70;100789.00;;;;4907038;28;93004;-66
2023/01/07 06:58:00;;;;;;;0.70;0.60;;;8.70;99.90;8.70;100799.00;;;;4883753;28;108330;-67
2023/01/07 07:00:26;;;;;;;1.03;0.63;;;8.80;99.90;8.70;100793.00;;;;4883325;28;121782;-67
2023/01/07 07:02:51;;;;;;;0.93;0.50;;;8.80;99.90;8.80;100805.00;;;;4885163;28;123172;-69
2023/01/07 07:05:17;;;;;;;0.60;0.60;;;8.80;99.90;8.80;100807.00;;;;4896993;28;111727;-67
2023/01/07 07:07:43;;;;;;;0.87;0.87;;;8.80;99.90;8.80;100798.00;;;;4899911;28;109025;-68
2023/01/07 07:10:09;;;;;;;1.57;1.27;;;8.90;99.90;8.80;100807.00;;;;4883480;28;113635;-67
2023/01/07 07:12:36;;;;;;;2.93;1.20;;;8.90;99.90;8.70;100810.00;;;;4901935;28;93879;-66
2023/01/07 07:15:06;;;;;;;2.00;1.10;;;8.80;99.90;8.70;100817.00;;;;4905500;28;93449;-69
2023/01/07 07:17:32;;;;;;;0.90;0.70;;;8.80;99.90;8.60;100812.00;;;;4900112;28;92757;-68
2023/01/07 07:19:58;;;;;;;1.50;0.60;;;8.70;99.90;8.60;100814.00;;;;4899313;28;114647;-66
2023/01/07 07:22:23;;;;;;;3.33;1.27;;;8.70;99.90;8.60;100818.00;;;;4883357;28;110371;-68
2023/01/07 07:24:49;;;;;;;1.33;0.97;;;8.70;99.90;8.50;100812.00;;;;4903572;28;110212;-67
2023/01/07 07:27:15;;;;;;;1.20;0.80;;;8.60;99.90;8.50;100817.00;;;;4900176;28;107374;-68
2023/01/07 07:29:41;;;;;;;0.83;0.70;;;8.60;99.90;8.40;100807.00;;;;4898985;28;95193;-71
2023/01/07 07:32:07;;;;;;;1.47;1.03;;;8.60;99.90;8.40;100804.00;;;;4900952;28;120368;-70
2023/01/07 07:34:33;;;;;;;0.70;0.70;;;8.60;99.90;8.40;100820.00;;;;4901481;28;93019;-67
2023/01/07 07:36:59;;;;;;;0.80;0.70;;;8.50;99.90;8.40;100824.00;;;;4906011;28;94023;-67
2023/01/07 07:39:25;;;;;;;1.63;0.90;;;8.40;99.90;8.40;100827.00;;;;4905854;28;115197;-68
2023/01/07 07:41:51;;;;;;;1.60;1.20;;;8.40;99.90;8.40;100820.00;;;;4905692;28;122897;-67
2023/01/07 07:44:16;;;;;;;1.20;1.10;;;8.50;99.90;8.30;100813.00;;;;4901267;28;111109;-68
2023/01/07 07:46:42;;;;;;;1.90;1.33;;;8.90;99.90;8.30;100808.00;;;;4906648;28;108133;-68
2023/01/07 07:49:09;;;;;;;1.37;1.10;;;8.50;99.90;8.30;100811.00;;;;4903539;28;122148;-69
2023/01/07 07:51:36;;;;;;;1.27;1.17;;;8.40;99.90;8.30;100808.00;;;;4865705;28;93055;-69
2023/01/07 07:54:02;;;;;;;2.13;1.43;;;8.40;99.90;8.30;100808.00;;;;4902700;28;109433;-69
2023/01/07 07:56:28;;;;;;;2.10;1.33;;;8.40;99.90;8.30;100815.00;;;;4906772;28;108043;-69
2023/01/07 07:58:53;;;;;;;1.30;1.10;;;8.40;99.90;8.30;100809.00;;;;4902876;28;124080;-69
2023/01/07 08:01:19;;;;;;;1.40;1.30;;;8.40;99.90;8.30;100804.00;;;;4905148;28;122601;-69
2023/01/07 08:03:45;;;;;;;2.50;1.30;;;8.40;99.90;8.30;100811.00;;;;4906653;28;108532;-69
2023/01/07 08:06:11;;;;;;;4.30;1.63;;;8.40;99.90;8.30;100808.00;;;;4903460;28;106988;-67
2023/01/07 08:08:37;;;;;;;1.27;1.17;;;8.50;99.90;8.30;100808.00;;;;4901931;28;112995;-67
2023/01/07 08:11:03;;;;;;;3.73;1.60;;;8.40;99.90;8.40;100809.00;;;;4902649;28;118517;-68
2023/01/07 08:13:30;;;;;;;1.67;1.37;;;8.50;99.90;8.40;100807.00;;;;4903887;28;108741;-67
2023/01/07 08:15:56;;;;;;;1.67;1.27;;;8.40;99.90;8.40;100814.00;;;;4887701;28;108912;-67
2023/01/07 08:18:22;;;;;;;2.13;1.40;;;8.50;99.90;8.40;100819.00;;;;4901931;28;92414;-68
2023/01/07 08:20:49;;;;;;;1.47;1.33;;;8.50;99.90;8.40;100814.00;;;;4903148;28;93784;-67
2023/01/07 08:23:16;;;;;;;2.60;1.20;;;8.50;99.90;8.40;100814.00;;;;4900902;28;94471;-68
2023/01/07 08:25:42;;;;;;;2.67;1.60;;;8.50;99.90;8.50;100825.00;;;;4901017;28;94224;-68
2023/01/07 08:28:09;;;;;;;1.47;1.10;;;8.60;99.90;8.50;100819.00;;;;4886589;28;94622;-68
2023/01/07 08:30:35;;;;;;;2.07;1.40;;;8.60;99.90;8.50;100820.00;;;;4904142;28;93369;-67
2023/01/07 08:33:04;;;;;;;1.70;1.10;;;8.60;99.90;8.60;100818.00;;;;4870836;28;95299;-67
2023/01/07 08:35:30;;;;;;;2.07;1.23;;;8.60;99.90;8.60;100821.00;;;;4905478;28;93253;-68
2023/01/07 08:38:07;;;;;;;1.53;1.00;;;8.70;99.90;8.60;100812.00;;;;4903702;28;125008;-67
2023/01/07 08:40:34;;;;;;;0.70;0.67;;;8.70;99.90;8.70;100805.00;;;;4870747;28;93306;-68
2023/01/07 08:43:03;;;;;;;1.20;1.07;;;8.80;99.90;8.70;100810.00;;;;4901848;28;92246;-68
2023/01/07 08:45:29;;;;;;;1.27;0.97;;;8.70;99.90;8.70;100797.00;;;;4906595;28;92943;-68
2023/01/07 08:47:58;;;;;;;1.63;1.33;;;8.70;99.90;8.70;100799.00;;;;4886375;28;92984;-68
2023/01/07 08:50:29;;;;;;;1.63;1.20;;;8.80;99.90;8.70;100798.00;;;;4901031;28;93841;-68
2023/01/07 08:52:56;;;;;;;3.63;1.63;;;8.80;99.90;8.80;100797.00;;;;4876073;28;93064;-68
2023/01/07 08:55:22;;;;;;;2.53;1.30;;;8.90;99.90;8.90;100791.00;;;;4902403;28;99537;-68
2023/01/07 08:57:48;;;;;;;1.67;1.40;;;8.90;99.90;8.90;100790.00;;;;4903436;28;123191;-68
2023/01/07 09:00:16;;;;;;;2.07;1.43;;;9.00;99.90;9.00;100797.00;;;;4906620;28;107433;-68
2023/01/07 09:02:42;;;;;;;1.53;0.87;;;9.10;99.90;9.10;100782.00;;;;4902792;28;92992;-69
2023/01/07 09:05:08;;;;;;;1.47;1.07;;;9.10;99.90;9.10;100782.00;;;;4903038;28;92926;-68
2023/01/07 09:07:34;;;;;;;0.80;0.70;;;9.10;99.90;9.20;100784.00;;;;4907039;28;92533;-70
2023/01/07 09:10:01;;;;;;;0.67;0.67;;;9.20;99.90;9.30;100783.00;;;;4904140;28;106043;-68
2023/01/07 09:12:26;;;;;;;1.13;1.03;;;9.30;99.90;9.60;100790.00;;;;4901861;28;101190;-69
2023/01/07 09:14:52;;;;;;;0.77;0.50;;;9.50;99.90;10.00;100784.00;;;;4902687;28;107210;-69
2023/01/07 09:17:18;;;;;;;0.50;0.40;;;9.90;99.90;10.30;100780.00;;;;4902759;28;122167;-68
2023/01/07 09:19:44;;;;;;;0.60;0.60;;;11.80;99.90;10.40;100767.00;;;;4903942;28;122745;-69
2023/01/07 09:22:10;;;;;;;0.87;0.67;;;10.40;99.90;10.50;100780.00;;;;4900415;28;110371;-70
2023/01/07 09:24:35;;;;;;;0.83;0.30;;;10.50;99.90;10.70;100776.00;;;;4903354;28;93862;-70
2023/01/07 09:27:01;;;;;;;0.63;0.60;;;10.60;99.90;10.90;100766.00;;;;4899014;28;122699;-69
2023/01/07 09:29:26;;;;;;;0.73;0.40;;;10.90;99.90;11.10;100768.00;;;;4901829;28;120589;-68
2023/01/07 09:31:52;;;;;;;0.33;0.30;;;11.10;99.90;11.10;100778.00;;;;4901915;28;109844;-68
2023/01/07 09:34:18;;;;;;;0.70;0.57;;;11.20;99.90;11.20;100768.00;;;;4902588;28;109077;-67
2023/01/07 09:36:43;;;;;;;1.47;0.67;;;11.30;99.90;11.40;100770.00;;;;4903827;28;112494;-68
2023/01/07 09:39:10;;;;;;;0.47;0.40;;;11.40;99.90;11.60;100775.00;;;;4902104;28;122476;-68
2023/01/07 09:41:53;;;;;;;1.13;0.67;;;11.60;99.90;11.70;100766.00;;;;4898354;28;93091;-69
2023/01/07 09:44:46;;;;;;;0.80;0.50;;;11.70;99.90;11.90;100772.00;;;;4903504;28;93153;-69
2023/01/07 09:47:17;;;;;;;0.50;0.50;;;11.90;99.90;12.20;100778.00;;;;4892468;28;93585;-67
2023/01/07 09:49:45;;;;;;;1.73;1.17;;;12.10;99.90;12.40;100773.00;;;;4882930;28;93064;-68
2023/01/07 09:52:21;;;;;;;3.03;1.83;;;12.40;99.90;12.70;100762.00;;;;4882707;28;95626;-66
2023/01/07 09:54:52;;;;;;;0.73;0.63;;;12.60;99.90;12.90;100766.00;;;;4886789;28;93047;-66
2023/01/07 09:57:18;;;;;;;0.30;0.30;;;12.80;99.90;13.10;100758.00;;;;4899881;28;93144;-66
2023/01/07 09:59:44;;;;;;;0.30;0.30;;;13.00;99.90;13.30;100753.00;;;;4905011;28;122778;-67
2023/01/07 10:03:05;;;;;;;2.57;0.87;;;13.20;99.90;13.40;100756.00;;;;4885556;28;93045;-67
2023/01/07 10:05:52;;;;;;;0.90;0.57;;;13.40;99.90;13.50;100758.00;;;;4875696;28;94108;-67
2023/01/07 10:08:48;;;;;;;0.60;0.57;;;13.50;99.90;13.50;100748.00;;;;4877472;28;114911;-66
2023/01/07 10:11:29;;;;;;;0.50;0.40;;;13.50;99.90;13.60;100747.00;;;;4883939;28;109016;-69
2023/01/07 10:14:50;;;;;;;0.17;0.17;;;13.60;99.90;13.70;100739.00;;;;4904231;28;93010;-67
2023/01/07 10:17:34;;;;;;;0.20;0.20;;;13.70;99.90;13.80;100735.00;;;;4819246;28;93098;-66
2023/01/07 10:20:10;;;;;;;0.10;0.10;;;13.80;99.90;13.80;100734.00;;;;4904719;28;92895;-66
2023/01/07 10:22:52;;;;;;;2.13;0.30;;;13.80;99.90;13.80;100730.00;;;;4904200;28;94399;-68
2023/01/07 10:25:24;;;;;;;1.20;0.60;;;13.80;99.90;13.80;100728.00;;;;4904543;28;92718;-66
2023/01/07 10:27:53;;;;;;;0.40;0.40;;;13.80;99.90;14.00;100728.00;;;;4886320;28;95937;-67
2023/01/07 10:30:24;;;;;;;0.27;0.23;;;13.90;99.90;14.10;100730.00;;;;4883544;28;121215;-68
2023/01/07 10:33:15;;;;;;;0.40;0.30;;;13.90;99.90;14.00;100718.00;;;;4883561;28;94200;-66
2023/01/07 10:35:41;;;;;;;0.70;0.37;;;14.10;99.90;14.10;100707.00;;;;4888292;28;99454;-67
2023/01/07 10:38:18;;;;;;;0.40;0.40;;;14.10;99.90;14.20;100717.00;;;;4903676;28;109056;-68
2023/01/07 10:40:56;;;;;;;0.30;0.30;;;14.20;99.90;14.50;100708.00;;;;4903608;28;117694;-66
2023/01/07 10:43:55;;;;;;;1.63;0.50;;;14.30;99.90;14.70;100706.00;;;;4901993;28;115402;-67
2023/01/07 10:46:51;;;;;;;0.43;0.40;;;14.60;99.90;14.70;100714.00;;;;4904048;28;93114;-68
2023/01/07 10:49:44;;;;;;;0.83;0.30;;;14.70;99.90;14.80;100705.00;;;;4888991;28;93298;-68
2023/01/07 10:52:50;;;;;;;0.40;0.40;;;14.70;99.90;14.80;100707.00;;;;4885247;28;113089;-68
2023/01/07 10:55:52;;;;;;;0.47;0.28;;;14.80;99.90;15.00;100705.00;;;;4899698;28;92859;-68
2023/01/07 10:58:17;;;;;;;1.45;0.57;;;14.90;99.90;15.10;100705.00;;;;4902149;28;93835;-67
2023/01/07 11:00:46;;;;;;;0.90;0.45;;;15.00;99.90;15.10;100702.00;;;;4898974;28;108383;-67
2023/01/07 11:03:20;;;;;;;0.95;0.52;;;15.00;99.90;15.00;100703.00;;;;4884598;28;93068;-68
2023/01/07 11:05:52;;;;;;;2.10;0.52;;;15.00;99.90;15.00;100693.00;;;;4884730;28;93186;-68
2023/01/07 11:08:41;;;;;;;0.30;0.30;;;14.90;99.90;15.10;100699.00;;;;4900282;28;100237;-70
2023/01/07 11:11:15;;;;;;;0.63;0.55;;;15.00;99.90;15.20;100695.00;;;;4887957;28;93072;-68
2023/01/07 11:13:53;;;;;;;0.22;0.22;;;15.00;99.90;15.30;100688.00;;;;4885599;28;98344;-68
2023/01/07 11:16:28;;;;;;;0.20;0.20;;;15.20;99.90;15.30;100677.00;;;;4894564;28;118057;-67